createdAt,value
2019-06-08T00:00:33.491Z,21.40
2019-06-08T00:01:33.462Z,21.40
2019-06-08T00:02:33.438Z,21.38
2019-06-08T00:03:33.423Z,21.40
2019-06-08T00:04:33.415Z,21.38
2019-06-08T00:05:33.415Z,21.40
2019-06-08T00:06:33.432Z,21.40
2019-06-08T00:07:33.386Z,21.38
2019-06-08T00:08:33.378Z,21.38
2019-06-08T00:09:33.362Z,21.38
2019-06-08T00:10:33.355Z,21.38
2019-06-08T00:11:33.374Z,21.40
2019-06-08T00:12:33.339Z,21.38
2019-06-08T00:13:33.326Z,21.38
2019-06-08T00:14:33.311Z,21.40
2019-06-08T00:15:33.302Z,21.40
2019-06-08T00:16:33.286Z,21.38
2019-06-08T00:17:38.562Z,21.38
2019-06-08T00:18:34.266Z,21.38
2019-06-08T00:19:33.259Z,21.38
2019-06-08T00:20:33.246Z,21.38
2019-06-08T00:21:33.238Z,21.38
2019-06-08T00:22:33.230Z,21.37
2019-06-08T00:23:33.245Z,21.38
2019-06-08T00:24:33.208Z,21.40
2019-06-08T00:25:33.190Z,21.38
2019-06-08T00:26:33.187Z,21.42
2019-06-08T00:27:33.201Z,21.38
2019-06-08T00:28:33.201Z,21.38
2019-06-08T00:29:33.151Z,21.38
2019-06-08T00:30:33.159Z,21.40
2019-06-08T00:31:33.127Z,21.38
2019-06-08T00:32:33.123Z,21.40
2019-06-08T00:33:33.107Z,21.40
2019-06-08T00:34:33.144Z,21.38
2019-06-08T00:35:33.090Z,21.38
2019-06-08T00:36:33.077Z,21.40
2019-06-08T00:37:33.073Z,21.38
2019-06-08T00:38:33.057Z,21.38
2019-06-08T00:39:33.045Z,21.38
2019-06-08T00:40:33.082Z,21.38
2019-06-08T00:41:33.022Z,21.38
2019-06-08T00:42:33.015Z,21.38
2019-06-08T00:43:33.005Z,21.40
2019-06-08T00:44:33.021Z,21.38
2019-06-08T00:45:32.986Z,21.37
2019-06-08T00:46:33.003Z,21.37
2019-06-08T00:47:47.081Z,21.37
2019-06-08T00:48:33.957Z,21.37
2019-06-08T00:49:32.937Z,21.40
2019-06-08T00:50:32.939Z,21.40
2019-06-08T00:51:32.961Z,21.37
2019-06-08T00:52:32.909Z,21.38
2019-06-08T00:53:32.902Z,21.38
2019-06-08T00:54:32.886Z,21.38
2019-06-08T00:55:32.888Z,21.38
2019-06-08T00:56:32.863Z,21.37
2019-06-08T00:57:32.884Z,21.37
2019-06-08T00:58:32.843Z,21.37
2019-06-08T00:59:32.833Z,21.37
2019-06-08T01:00:32.820Z,21.37
2019-06-08T01:01:32.811Z,21.37
2019-06-08T01:02:32.800Z,21.37
2019-06-08T01:03:32.841Z,21.38
2019-06-08T01:04:32.781Z,21.38
2019-06-08T01:05:32.771Z,21.37
2019-06-08T01:06:32.763Z,21.37
2019-06-08T01:07:32.747Z,21.37
2019-06-08T01:08:32.748Z,21.35
2019-06-08T01:09:32.764Z,21.35
2019-06-08T01:10:32.716Z,21.37
2019-06-08T01:11:32.709Z,21.37
2019-06-08T01:12:32.698Z,21.37
2019-06-08T01:13:32.708Z,21.37
2019-06-08T01:14:32.712Z,21.37
2019-06-08T01:15:34.300Z,21.37
2019-06-08T01:16:32.652Z,21.35
2019-06-08T01:17:32.642Z,21.35
2019-06-08T01:18:32.637Z,21.35
2019-06-08T01:19:32.622Z,21.34
2019-06-08T01:20:32.640Z,21.35
2019-06-08T01:21:32.605Z,21.35
2019-06-08T01:22:32.594Z,21.35
2019-06-08T01:23:32.595Z,21.35
2019-06-08T01:24:32.569Z,21.35
2019-06-08T01:25:32.588Z,21.37
2019-06-08T01:26:32.550Z,21.35
2019-06-08T01:27:32.533Z,21.35
2019-06-08T01:28:32.529Z,21.35
2019-06-08T01:29:32.514Z,21.35
2019-06-08T01:30:32.539Z,21.34
2019-06-08T01:31:32.495Z,21.35
2019-06-08T01:32:32.484Z,21.34
2019-06-08T01:33:32.477Z,21.34
2019-06-08T01:34:32.463Z,21.34
2019-06-08T01:35:32.454Z,21.34
2019-06-08T01:36:32.488Z,21.35
2019-06-08T01:37:32.431Z,21.34
2019-06-08T01:38:32.419Z,21.35
2019-06-08T01:39:32.581Z,21.35
2019-06-08T01:40:32.399Z,21.34
2019-06-08T01:41:32.416Z,21.34
2019-06-08T01:42:32.377Z,21.34
2019-06-08T01:43:32.364Z,21.34
2019-06-08T01:44:32.356Z,21.34
2019-06-08T01:45:33.107Z,21.34
2019-06-08T01:46:32.500Z,21.34
2019-06-08T01:47:32.438Z,21.34
2019-06-08T01:48:32.419Z,21.34
2019-06-08T01:49:32.597Z,21.32
2019-06-08T01:50:32.767Z,21.34
2019-06-08T01:51:32.760Z,21.34
2019-06-08T01:52:33.012Z,21.34
2019-06-08T01:53:33.009Z,21.34
2019-06-08T01:54:33.315Z,21.32
2019-06-08T01:55:33.271Z,21.34
2019-06-08T01:56:33.392Z,21.34
2019-06-08T01:57:33.709Z,21.34
2019-06-08T01:58:33.416Z,21.34
2019-06-08T01:59:34.536Z,21.34
2019-06-08T02:00:39.269Z,21.34
2019-06-08T02:01:34.168Z,21.35
2019-06-08T02:02:32.160Z,21.34
2019-06-08T02:03:32.752Z,21.32
2019-06-08T02:04:33.146Z,21.34
2019-06-08T02:05:32.499Z,21.32
2019-06-08T02:06:32.506Z,21.32
2019-06-08T02:07:32.456Z,21.32
2019-06-08T02:08:32.653Z,21.32
2019-06-08T02:09:32.774Z,21.34
2019-06-08T02:10:32.916Z,21.32
2019-06-08T02:11:33.058Z,21.34
2019-06-08T02:12:33.097Z,21.32
2019-06-08T02:13:33.139Z,21.32
2019-06-08T02:14:33.256Z,21.32
2019-06-08T02:15:33.750Z,21.32
2019-06-08T02:16:33.272Z,21.32
2019-06-08T02:17:32.003Z,21.31
2019-06-08T02:18:39.787Z,21.32
2019-06-08T02:19:32.980Z,21.31
2019-06-08T02:20:33.012Z,21.32
2019-06-08T02:21:32.810Z,21.32
2019-06-08T02:22:33.072Z,21.31
2019-06-08T02:23:33.035Z,21.32
2019-06-08T02:24:33.260Z,21.32
2019-06-08T02:25:33.423Z,21.31
2019-06-08T02:26:32.138Z,21.32
2019-06-08T02:27:31.927Z,21.31
2019-06-08T02:28:31.885Z,21.31
2019-06-08T02:29:31.874Z,21.31
2019-06-08T02:30:35.718Z,21.31
2019-06-08T02:31:32.840Z,21.31
2019-06-08T02:32:33.520Z,21.31
2019-06-08T02:33:32.493Z,21.31
2019-06-08T02:34:33.518Z,21.31
2019-06-08T02:35:32.801Z,21.29
2019-06-08T02:36:33.763Z,21.32
2019-06-08T02:37:33.069Z,21.31
2019-06-08T02:38:32.590Z,21.31
2019-06-08T02:39:32.678Z,21.29
2019-06-08T02:40:33.061Z,21.31
2019-06-08T02:41:33.079Z,21.29
2019-06-08T02:42:33.101Z,21.31
2019-06-08T02:43:33.366Z,21.29
2019-06-08T02:44:32.219Z,21.31
2019-06-08T02:45:32.564Z,21.29
2019-06-08T02:46:33.352Z,21.29
2019-06-08T02:47:32.558Z,21.28
2019-06-08T02:48:33.485Z,21.28
2019-06-08T02:49:33.200Z,21.29
2019-06-08T02:50:33.036Z,21.29
2019-06-08T02:51:33.735Z,21.31
2019-06-08T02:52:31.939Z,21.31
2019-06-08T02:53:33.625Z,21.29
2019-06-08T02:54:32.517Z,21.31
2019-06-08T02:55:33.075Z,21.28
2019-06-08T02:56:31.975Z,21.28
2019-06-08T02:57:33.213Z,21.28
2019-06-08T02:58:33.391Z,21.29
2019-06-08T02:59:32.850Z,21.29
2019-06-08T03:00:32.027Z,21.29
2019-06-08T03:01:31.581Z,21.29
2019-06-08T03:02:31.709Z,21.28
2019-06-08T03:03:31.777Z,21.29
2019-06-08T03:04:32.398Z,21.29
2019-06-08T03:05:31.911Z,21.29
2019-06-08T03:06:32.386Z,21.28
2019-06-08T03:07:32.276Z,21.29
2019-06-08T03:08:32.384Z,21.29
2019-06-08T03:09:32.489Z,21.28
2019-06-08T03:10:32.887Z,21.28
2019-06-08T03:11:32.609Z,21.29
2019-06-08T03:12:32.941Z,21.29
2019-06-08T03:13:33.393Z,21.28
2019-06-08T03:14:33.193Z,21.28
2019-06-08T03:15:34.313Z,21.28
2019-06-08T03:16:33.233Z,21.28
2019-06-08T03:17:31.362Z,21.29
2019-06-08T03:18:31.988Z,21.29
2019-06-08T03:19:31.567Z,21.29
2019-06-08T03:20:31.663Z,21.29
2019-06-08T03:21:31.483Z,21.29
2019-06-08T03:22:32.049Z,21.28
2019-06-08T03:23:31.946Z,21.29
2019-06-08T03:24:32.476Z,21.28
2019-06-08T03:25:33.577Z,21.28
2019-06-08T03:26:32.291Z,21.28
2019-06-08T03:27:32.563Z,21.27
2019-06-08T03:28:32.604Z,21.28
2019-06-08T03:29:32.459Z,21.28
2019-06-08T03:30:34.185Z,21.28
2019-06-08T03:31:36.085Z,21.27
2019-06-08T03:32:34.889Z,21.29
2019-06-08T03:33:34.986Z,21.28
2019-06-08T03:34:35.551Z,21.27
2019-06-08T03:35:34.951Z,21.28
2019-06-08T03:36:34.935Z,21.27
2019-06-08T03:37:33.283Z,21.28
2019-06-08T03:38:31.148Z,21.29
2019-06-08T03:39:31.114Z,21.27
2019-06-08T03:40:31.111Z,21.28
2019-06-08T03:41:31.094Z,21.28
2019-06-08T03:42:31.104Z,21.27
2019-06-08T03:43:31.076Z,21.27
2019-06-08T03:44:31.067Z,21.27
2019-06-08T03:45:31.053Z,21.25
2019-06-08T03:46:31.039Z,21.25
2019-06-08T03:47:31.057Z,21.27
2019-06-08T03:48:31.026Z,21.27
2019-06-08T03:49:42.809Z,21.27
2019-06-08T03:50:32.007Z,21.27
2019-06-08T03:51:35.056Z,21.27
2019-06-08T03:52:32.012Z,21.27
2019-06-08T03:53:30.965Z,21.25
2019-06-08T03:54:30.958Z,21.25
2019-06-08T03:55:30.947Z,21.25
2019-06-08T03:56:30.934Z,21.27
2019-06-08T03:57:30.924Z,21.27
2019-06-08T03:58:33.981Z,21.24
2019-06-08T03:59:30.902Z,21.25
2019-06-08T04:00:30.892Z,21.27
2019-06-08T04:01:30.906Z,21.24
2019-06-08T04:02:30.875Z,21.25
2019-06-08T04:03:30.886Z,21.25
2019-06-08T04:04:30.851Z,21.27
2019-06-08T04:05:30.840Z,21.25
2019-06-08T04:06:30.828Z,21.27
2019-06-08T04:07:30.815Z,21.24
2019-06-08T04:08:30.825Z,21.25
2019-06-08T04:09:30.794Z,21.25
2019-06-08T04:10:30.780Z,21.25
2019-06-08T04:11:30.773Z,21.25
2019-06-08T04:12:30.790Z,21.25
2019-06-08T04:13:30.751Z,21.25
2019-06-08T04:14:30.753Z,21.25
2019-06-08T04:15:30.730Z,21.25
2019-06-08T04:16:30.724Z,21.25
2019-06-08T04:17:30.709Z,21.24
2019-06-08T04:18:30.715Z,21.25
2019-06-08T04:19:30.689Z,21.25
2019-06-08T04:20:30.673Z,21.24
2019-06-08T04:21:30.682Z,21.24
2019-06-08T04:22:30.655Z,21.24
2019-06-08T04:23:30.644Z,21.24
2019-06-08T04:24:30.642Z,21.24
2019-06-08T04:25:30.620Z,21.25
2019-06-08T04:26:30.614Z,21.22
2019-06-08T04:27:30.633Z,21.25
2019-06-08T04:28:30.590Z,21.25
2019-06-08T04:29:30.580Z,21.25
2019-06-08T04:30:30.566Z,21.24
2019-06-08T04:31:30.556Z,21.24
2019-06-08T04:32:30.550Z,21.22
2019-06-08T04:33:30.558Z,21.24
2019-06-08T04:34:30.521Z,21.22
2019-06-08T04:35:30.516Z,21.24
2019-06-08T04:36:30.509Z,21.22
2019-06-08T04:37:30.496Z,21.22
2019-06-08T04:38:30.478Z,21.24
2019-06-08T04:39:30.592Z,21.22
2019-06-08T04:40:30.463Z,21.24
2019-06-08T04:41:30.454Z,21.24
2019-06-08T04:42:30.435Z,21.25
2019-06-08T04:43:30.430Z,21.24
2019-06-08T04:44:30.436Z,21.24
2019-06-08T04:45:30.410Z,21.25
2019-06-08T04:46:30.392Z,21.24
2019-06-08T04:47:30.384Z,21.22
2019-06-08T04:48:30.374Z,21.24
2019-06-08T04:49:30.395Z,21.22
2019-06-08T04:50:30.350Z,21.24
2019-06-08T04:51:30.349Z,21.22
2019-06-08T04:52:30.336Z,21.22
2019-06-08T04:53:30.338Z,21.25
2019-06-08T04:54:30.310Z,21.24
2019-06-08T04:55:30.325Z,21.24
2019-06-08T04:56:30.287Z,21.24
2019-06-08T04:57:30.303Z,21.21
2019-06-08T04:58:30.270Z,21.24
2019-06-08T04:59:30.252Z,21.22
2019-06-08T05:00:31.367Z,21.22
2019-06-08T05:01:30.254Z,21.24
2019-06-08T05:02:30.226Z,21.22
2019-06-08T05:03:30.217Z,21.22
2019-06-08T05:04:30.209Z,21.24
2019-06-08T05:05:30.194Z,21.24
2019-06-08T05:06:30.203Z,21.22
2019-06-08T05:07:30.168Z,21.24
2019-06-08T05:08:30.162Z,21.22
2019-06-08T05:09:30.146Z,21.22
2019-06-08T05:10:30.160Z,21.24
2019-06-08T05:11:30.149Z,21.22
2019-06-08T05:12:30.112Z,21.22
2019-06-08T05:13:30.107Z,21.24
2019-06-08T05:14:30.096Z,21.24
2019-06-08T05:15:30.084Z,21.22
2019-06-08T05:16:30.090Z,21.22
2019-06-08T05:17:30.062Z,21.22
2019-06-08T05:18:30.058Z,21.22
2019-06-08T05:19:30.060Z,21.21
2019-06-08T05:20:38.998Z,21.22
2019-06-08T05:21:31.042Z,21.22
2019-06-08T05:22:30.030Z,21.24
2019-06-08T05:23:29.997Z,21.22
2019-06-08T05:24:29.983Z,21.22
2019-06-08T05:25:29.974Z,21.21
2019-06-08T05:26:29.967Z,21.22
2019-06-08T05:27:29.959Z,21.21
2019-06-08T05:28:29.959Z,21.21
2019-06-08T05:29:29.944Z,21.22
2019-06-08T05:30:29.923Z,21.21
2019-06-08T05:31:29.918Z,21.22
2019-06-08T05:32:29.922Z,21.21
2019-06-08T05:33:29.939Z,21.21
2019-06-08T05:34:29.882Z,21.21
2019-06-08T05:35:29.872Z,21.21
2019-06-08T05:36:29.854Z,21.22
2019-06-08T05:37:29.855Z,21.22
2019-06-08T05:38:29.834Z,21.19
2019-06-08T05:39:29.841Z,21.22
2019-06-08T05:40:29.814Z,21.22
2019-06-08T05:41:29.820Z,21.21
2019-06-08T05:42:29.787Z,21.21
2019-06-08T05:43:29.793Z,21.21
2019-06-08T05:44:29.767Z,21.22
2019-06-08T05:45:29.760Z,21.21
2019-06-08T05:46:29.748Z,21.21
2019-06-08T05:47:29.767Z,21.21
2019-06-08T05:48:29.726Z,21.21
2019-06-08T05:49:29.717Z,21.19
2019-06-08T05:50:29.715Z,21.21
2019-06-08T05:51:29.698Z,21.19
2019-06-08T05:52:29.700Z,21.21
2019-06-08T05:53:29.710Z,21.19
2019-06-08T05:54:29.659Z,21.21
2019-06-08T05:55:29.688Z,21.21
2019-06-08T05:56:29.647Z,21.19
2019-06-08T05:57:29.639Z,21.21
2019-06-08T05:58:29.621Z,21.19
2019-06-08T05:59:29.610Z,21.21
2019-06-08T06:00:29.596Z,21.21
2019-06-08T06:01:29.608Z,21.22
2019-06-08T06:02:29.580Z,21.19
2019-06-08T06:03:29.601Z,21.19
2019-06-08T06:04:29.557Z,21.19
2019-06-08T06:05:29.544Z,21.19
2019-06-08T06:06:29.547Z,21.21
2019-06-08T06:07:29.561Z,21.19
2019-06-08T06:08:29.509Z,21.19
2019-06-08T06:09:29.525Z,21.21
2019-06-08T06:10:29.512Z,21.21
2019-06-08T06:11:29.483Z,21.17
2019-06-08T06:12:29.475Z,21.19
2019-06-08T06:13:29.459Z,21.19
2019-06-08T06:14:29.447Z,21.21
2019-06-08T06:15:29.458Z,21.19
2019-06-08T06:16:29.430Z,21.19
2019-06-08T06:17:29.436Z,21.19
2019-06-08T06:18:29.406Z,21.19
2019-06-08T06:19:29.393Z,21.19
2019-06-08T06:20:29.381Z,21.19
2019-06-08T06:21:29.371Z,21.19
2019-06-08T06:22:29.385Z,21.19
2019-06-08T06:23:29.354Z,21.17
2019-06-08T06:24:29.345Z,21.19
2019-06-08T06:25:29.345Z,21.19
2019-06-08T06:26:29.323Z,21.17
2019-06-08T06:27:29.305Z,21.19
2019-06-08T06:28:29.315Z,21.19
2019-06-08T06:29:29.307Z,21.17
2019-06-08T06:30:29.279Z,21.17
2019-06-08T06:31:29.271Z,21.19
2019-06-08T06:32:29.255Z,21.17
2019-06-08T06:33:29.255Z,21.19
2019-06-08T06:34:29.251Z,21.19
2019-06-08T06:35:29.254Z,21.19
2019-06-08T06:36:29.214Z,21.19
2019-06-08T06:37:29.201Z,21.17
2019-06-08T06:38:29.187Z,21.17
2019-06-08T06:39:29.205Z,21.17
2019-06-08T06:40:29.168Z,21.19
2019-06-08T06:41:29.162Z,21.17
2019-06-08T06:42:29.149Z,21.19
2019-06-08T06:43:29.133Z,21.17
2019-06-08T06:44:29.125Z,21.17
2019-06-08T06:45:29.144Z,21.17
2019-06-08T06:46:29.110Z,21.19
2019-06-08T06:47:29.090Z,21.17
2019-06-08T06:48:29.083Z,21.17
2019-06-08T06:49:29.067Z,21.17
2019-06-08T06:50:29.067Z,21.17
2019-06-08T06:51:29.074Z,21.17
2019-06-08T06:52:29.061Z,21.17
2019-06-08T06:53:29.026Z,21.17
2019-06-08T06:54:29.017Z,21.16
2019-06-08T06:55:29.008Z,21.17
2019-06-08T06:56:29.017Z,21.19
2019-06-08T06:57:28.988Z,21.17
2019-06-08T06:58:28.971Z,21.17
2019-06-08T06:59:28.980Z,21.17
2019-06-08T07:00:28.952Z,21.19
2019-06-08T07:01:28.972Z,21.19
2019-06-08T07:02:28.954Z,21.16
2019-06-08T07:03:28.918Z,21.19
2019-06-08T07:04:28.906Z,21.16
2019-06-08T07:05:28.896Z,21.16
2019-06-08T07:06:28.887Z,21.17
2019-06-08T07:07:28.910Z,21.19
2019-06-08T07:08:28.866Z,21.17
2019-06-08T07:09:28.858Z,21.17
2019-06-08T07:10:28.844Z,21.17
2019-06-08T07:11:28.831Z,21.17
2019-06-08T07:12:28.830Z,21.19
2019-06-08T07:13:28.828Z,21.17
2019-06-08T07:14:28.800Z,21.17
2019-06-08T07:15:28.813Z,21.19
2019-06-08T07:16:28.782Z,21.17
2019-06-08T07:17:28.796Z,21.19
2019-06-08T07:18:28.780Z,21.19
2019-06-08T07:19:28.746Z,21.17
2019-06-08T07:20:28.741Z,21.17
2019-06-08T07:21:40.900Z,21.19
2019-06-08T07:22:29.709Z,21.19
2019-06-08T07:23:28.708Z,21.19
2019-06-08T07:24:28.725Z,21.17
2019-06-08T07:25:28.701Z,21.19
2019-06-08T07:26:28.674Z,21.21
2019-06-08T07:27:28.665Z,21.19
2019-06-08T07:28:28.646Z,21.17
2019-06-08T07:29:28.637Z,21.19
2019-06-08T07:30:28.659Z,21.19
2019-06-08T07:31:28.619Z,21.19
2019-06-08T07:32:28.609Z,21.19
2019-06-08T07:33:28.594Z,21.19
2019-06-08T07:34:28.582Z,21.21
2019-06-08T07:35:28.573Z,21.19
2019-06-08T07:36:28.585Z,21.19
2019-06-08T07:37:28.570Z,21.17
2019-06-08T07:38:28.549Z,21.19
2019-06-08T07:39:28.532Z,21.21
2019-06-08T07:40:28.523Z,21.21
2019-06-08T07:41:28.511Z,21.21
2019-06-08T07:42:28.538Z,21.19
2019-06-08T07:43:28.488Z,21.22
2019-06-08T07:44:28.477Z,21.21
2019-06-08T07:45:28.470Z,21.21
2019-06-08T07:46:28.453Z,21.21
2019-06-08T07:47:28.441Z,21.21
2019-06-08T07:48:28.476Z,21.19
2019-06-08T07:49:28.428Z,21.19
2019-06-08T07:50:28.410Z,21.19
2019-06-08T07:51:28.500Z,21.21
2019-06-08T07:52:28.400Z,21.21
2019-06-08T07:53:28.385Z,21.19
2019-06-08T07:54:28.368Z,21.21
2019-06-08T07:55:28.363Z,21.21
2019-06-08T07:56:28.345Z,21.19
2019-06-08T07:57:28.360Z,21.21
2019-06-08T07:58:28.332Z,21.21
2019-06-08T07:59:28.340Z,21.21
2019-06-08T08:00:28.304Z,21.21
2019-06-08T08:01:36.187Z,21.22
2019-06-08T08:02:29.282Z,21.24
2019-06-08T08:03:28.272Z,21.22
2019-06-08T08:04:28.315Z,21.24
2019-06-08T08:05:28.290Z,21.22
2019-06-08T08:06:30.521Z,21.22
2019-06-08T08:07:28.232Z,21.25
2019-06-08T08:08:28.218Z,21.27
2019-06-08T08:09:28.224Z,21.27
2019-06-08T08:10:28.196Z,21.27
2019-06-08T08:11:28.224Z,21.28
2019-06-08T08:12:28.180Z,21.28
2019-06-08T08:13:28.166Z,21.31
2019-06-08T08:14:28.152Z,21.32
2019-06-08T08:15:28.151Z,21.32
2019-06-08T08:16:28.160Z,21.34
2019-06-08T08:17:28.122Z,21.35
2019-06-08T08:18:28.113Z,21.35
2019-06-08T08:19:28.104Z,21.37
2019-06-08T08:20:28.090Z,21.38
2019-06-08T08:21:29.531Z,21.40
2019-06-08T08:22:29.619Z,21.42
2019-06-08T08:23:28.054Z,21.42
2019-06-08T08:24:28.094Z,21.43
2019-06-08T08:25:28.248Z,21.42
2019-06-08T08:26:30.429Z,21.43
2019-06-08T08:27:29.045Z,21.42
2019-06-08T08:28:28.048Z,21.42
2019-06-08T08:29:28.176Z,21.40
2019-06-08T08:30:28.411Z,21.43
2019-06-08T08:31:28.093Z,21.42
2019-06-08T08:32:28.387Z,21.42
2019-06-08T08:33:27.975Z,21.42
2019-06-08T08:34:28.364Z,21.40
2019-06-08T08:35:28.129Z,21.40
2019-06-08T08:36:29.440Z,21.40
2019-06-08T08:37:28.165Z,21.38
2019-06-08T08:38:27.897Z,21.38
2019-06-08T08:39:27.907Z,21.37
2019-06-08T08:40:28.280Z,21.37
2019-06-08T08:41:28.039Z,21.37
2019-06-08T08:42:30.099Z,21.37
2019-06-08T08:43:28.135Z,21.37
2019-06-08T08:44:28.381Z,21.35
2019-06-08T08:45:27.842Z,21.35
2019-06-08T08:46:28.570Z,21.35
2019-06-08T08:47:30.733Z,21.35
2019-06-08T08:48:31.128Z,21.35
2019-06-08T08:49:28.152Z,21.34
2019-06-08T08:50:28.341Z,21.35
2019-06-08T08:51:28.046Z,21.35
2019-06-08T08:52:36.795Z,21.37
2019-06-08T08:53:28.733Z,21.38
2019-06-08T08:54:29.781Z,21.38
2019-06-08T08:55:28.023Z,21.38
2019-06-08T08:56:28.120Z,21.40
2019-06-08T08:57:28.910Z,21.42
2019-06-08T08:58:28.092Z,21.42
2019-06-08T08:59:28.108Z,21.42
2019-06-08T09:00:28.110Z,21.42
2019-06-08T09:01:28.922Z,21.43
2019-06-08T09:02:27.811Z,21.43
2019-06-08T09:03:30.947Z,21.43
2019-06-08T09:04:28.611Z,21.44
2019-06-08T09:05:28.117Z,21.46
2019-06-08T09:06:28.079Z,21.46
2019-06-08T09:07:27.686Z,21.49
2019-06-08T09:08:29.741Z,21.47
2019-06-08T09:09:28.837Z,21.52
2019-06-08T09:10:28.041Z,21.52
2019-06-08T09:11:28.853Z,21.52
2019-06-08T09:12:27.733Z,21.53
2019-06-08T09:13:28.212Z,21.54
2019-06-08T09:14:28.062Z,21.54
2019-06-08T09:15:31.212Z,21.54
2019-06-08T09:16:28.711Z,21.54
2019-06-08T09:17:27.985Z,21.56
2019-06-08T09:18:28.688Z,21.54
2019-06-08T09:19:28.053Z,21.54
2019-06-08T09:20:28.576Z,21.53
2019-06-08T09:21:28.114Z,21.53
2019-06-08T09:22:28.239Z,21.52
2019-06-08T09:23:28.077Z,21.52
2019-06-08T09:24:28.587Z,21.53
2019-06-08T09:25:28.027Z,21.50
2019-06-08T09:26:28.752Z,21.53
2019-06-08T09:27:28.110Z,21.52
2019-06-08T09:28:28.486Z,21.53
2019-06-08T09:29:28.906Z,21.53
2019-06-08T09:30:27.557Z,21.52
2019-06-08T09:31:28.069Z,21.54
2019-06-08T09:32:28.237Z,21.54
2019-06-08T09:33:28.781Z,21.54
2019-06-08T09:34:28.318Z,21.56
2019-06-08T09:35:28.000Z,21.54
2019-06-08T09:36:28.658Z,21.53
2019-06-08T09:37:28.806Z,21.53
2019-06-08T09:38:28.703Z,21.54
2019-06-08T09:39:28.642Z,21.52
2019-06-08T09:40:31.940Z,21.52
2019-06-08T09:41:31.178Z,21.52
2019-06-08T09:42:28.479Z,21.52
2019-06-08T09:43:28.915Z,21.50
2019-06-08T09:44:28.107Z,21.50
2019-06-08T09:45:28.971Z,21.50
2019-06-08T09:46:27.795Z,21.50
2019-06-08T09:47:28.008Z,21.50
2019-06-08T09:48:28.795Z,21.52
2019-06-08T09:49:27.973Z,21.52
2019-06-08T09:50:27.802Z,21.50
2019-06-08T09:51:28.550Z,21.50
2019-06-08T09:52:28.172Z,21.50
2019-06-08T09:53:36.939Z,21.50
2019-06-08T09:54:28.341Z,21.50
2019-06-08T09:55:28.839Z,21.50
2019-06-08T09:56:28.257Z,21.50
2019-06-08T09:57:28.428Z,21.50
2019-06-08T09:58:29.115Z,21.49
2019-06-08T09:59:28.502Z,21.50
2019-06-08T10:00:29.239Z,21.50
2019-06-08T10:01:28.633Z,21.50
2019-06-08T10:02:28.344Z,21.49
2019-06-08T10:03:28.192Z,21.50
2019-06-08T10:04:29.189Z,21.49
2019-06-08T10:05:27.593Z,21.49
2019-06-08T10:06:26.964Z,21.50
2019-06-08T10:07:31.068Z,21.50
2019-06-08T10:08:28.315Z,21.50
2019-06-08T10:09:28.390Z,21.49
2019-06-08T10:10:26.919Z,21.49
2019-06-08T10:11:28.078Z,21.47
2019-06-08T10:12:28.225Z,21.49
2019-06-08T10:13:28.006Z,21.49
2019-06-08T10:14:28.199Z,21.49
2019-06-08T10:15:27.834Z,21.49
2019-06-08T10:16:27.971Z,21.50
2019-06-08T10:17:27.891Z,21.49
2019-06-08T10:18:28.529Z,21.50
2019-06-08T10:19:26.821Z,21.50
2019-06-08T10:20:28.863Z,21.49
2019-06-08T10:21:28.453Z,21.50
2019-06-08T10:22:28.231Z,21.49
2019-06-08T10:23:33.452Z,21.50
2019-06-08T10:24:27.825Z,21.49
2019-06-08T10:25:28.660Z,21.50
2019-06-08T10:26:28.012Z,21.50
2019-06-08T10:27:28.371Z,21.50
2019-06-08T10:28:28.954Z,21.49
2019-06-08T10:29:26.761Z,21.49
2019-06-08T10:30:28.432Z,21.47
2019-06-08T10:31:36.557Z,21.49
2019-06-08T10:32:28.249Z,21.47
2019-06-08T10:33:28.171Z,21.49
2019-06-08T10:34:27.299Z,21.47
2019-06-08T10:35:28.361Z,21.47
2019-06-08T10:36:28.385Z,21.49
2019-06-08T10:37:28.327Z,21.47
2019-06-08T10:38:28.783Z,21.49
2019-06-08T10:39:28.358Z,21.49
2019-06-08T10:40:28.592Z,21.49
2019-06-08T10:41:27.825Z,21.49
2019-06-08T10:42:26.585Z,21.52
2019-06-08T10:43:28.918Z,21.52
2019-06-08T10:44:28.371Z,21.53
2019-06-08T10:45:28.589Z,21.53
2019-06-08T10:46:26.566Z,21.56
2019-06-08T10:47:29.539Z,21.56
2019-06-08T10:48:27.616Z,21.61
2019-06-08T10:49:28.699Z,21.62
2019-06-08T10:50:28.674Z,21.62
2019-06-08T10:51:26.523Z,21.64
2019-06-08T10:52:28.182Z,21.67
2019-06-08T10:53:28.453Z,21.67
2019-06-08T10:54:27.729Z,21.68
2019-06-08T10:55:28.071Z,21.68
2019-06-08T10:56:28.384Z,21.67
2019-06-08T10:57:28.009Z,21.67
2019-06-08T10:58:28.356Z,21.67
2019-06-08T10:59:28.802Z,21.65
2019-06-08T11:00:28.130Z,21.65
2019-06-08T11:01:28.241Z,21.64
2019-06-08T11:02:28.197Z,21.64
2019-06-08T11:03:30.445Z,21.64
2019-06-08T11:04:28.512Z,21.64
2019-06-08T11:05:28.070Z,21.64
2019-06-08T11:06:26.334Z,21.62
2019-06-08T11:07:27.967Z,21.62
2019-06-08T11:08:27.521Z,21.61
2019-06-08T11:09:28.519Z,21.61
2019-06-08T11:10:26.288Z,21.61
2019-06-08T11:11:28.412Z,21.61
2019-06-08T11:12:28.306Z,21.61
2019-06-08T11:13:28.297Z,21.59
2019-06-08T11:14:26.276Z,21.58
2019-06-08T11:15:29.375Z,21.58
2019-06-08T11:16:28.574Z,21.56
2019-06-08T11:17:27.935Z,21.58
2019-06-08T11:18:28.526Z,21.54
2019-06-08T11:19:26.642Z,21.56
2019-06-08T11:20:27.596Z,21.56
2019-06-08T11:21:28.498Z,21.56
2019-06-08T11:22:27.857Z,21.58
2019-06-08T11:23:28.600Z,21.54
2019-06-08T11:24:28.779Z,21.54
2019-06-08T11:25:28.012Z,21.54
2019-06-08T11:26:28.672Z,21.54
2019-06-08T11:27:28.511Z,21.54
2019-06-08T11:28:28.108Z,21.54
2019-06-08T11:29:27.546Z,21.54
2019-06-08T11:30:29.766Z,21.53
2019-06-08T11:31:28.889Z,21.53
2019-06-08T11:32:27.079Z,21.53
2019-06-08T11:33:30.275Z,21.53
2019-06-08T11:34:28.593Z,21.53
2019-06-08T11:35:28.492Z,21.50
2019-06-08T11:36:28.201Z,21.52
2019-06-08T11:37:26.007Z,21.53
2019-06-08T11:38:28.712Z,21.53
2019-06-08T11:39:28.582Z,21.54
2019-06-08T11:40:27.844Z,21.58
2019-06-08T11:41:27.824Z,21.59
2019-06-08T11:42:28.478Z,21.61
2019-06-08T11:43:28.561Z,21.62
2019-06-08T11:44:27.638Z,21.64
2019-06-08T11:45:25.944Z,21.64
2019-06-08T11:46:28.197Z,21.65
2019-06-08T11:47:27.736Z,21.65
2019-06-08T11:48:28.393Z,21.65
2019-06-08T11:49:27.890Z,21.67
2019-06-08T11:50:25.867Z,21.65
2019-06-08T11:51:29.602Z,21.67
2019-06-08T11:52:28.356Z,21.65
2019-06-08T11:53:28.657Z,21.65
2019-06-08T11:54:34.456Z,21.65
2019-06-08T11:55:28.174Z,21.64
2019-06-08T11:56:25.804Z,21.64
2019-06-08T11:57:28.207Z,21.64
2019-06-08T11:58:28.285Z,21.64
2019-06-08T11:59:25.790Z,21.64
2019-06-08T12:00:30.714Z,21.64
2019-06-08T12:01:27.677Z,21.62
2019-06-08T12:02:25.740Z,21.64
2019-06-08T12:03:27.654Z,21.64
2019-06-08T12:04:28.207Z,21.62
2019-06-08T12:05:27.805Z,21.64
2019-06-08T12:06:25.730Z,21.64
2019-06-08T12:07:29.962Z,21.62
2019-06-08T12:08:28.157Z,21.64
2019-06-08T12:09:25.664Z,21.62
2019-06-08T12:10:25.708Z,21.64
2019-06-08T12:11:25.636Z,21.64
2019-06-08T12:12:28.161Z,21.64
2019-06-08T12:13:27.762Z,21.64
2019-06-08T12:14:25.612Z,21.64
2019-06-08T12:15:25.604Z,21.64
2019-06-08T12:16:28.102Z,21.62
2019-06-08T12:17:27.582Z,21.64
2019-06-08T12:18:25.581Z,21.62
2019-06-08T12:19:25.552Z,21.62
2019-06-08T12:20:27.847Z,21.64
2019-06-08T12:21:27.382Z,21.61
2019-06-08T12:22:25.556Z,21.59
2019-06-08T12:23:25.515Z,21.59
2019-06-08T12:24:40.538Z,21.59
2019-06-08T12:25:26.494Z,21.59
2019-06-08T12:26:25.485Z,21.59
2019-06-08T12:27:33.510Z,21.59
2019-06-08T12:28:28.054Z,21.59
2019-06-08T12:29:25.472Z,21.58
2019-06-08T12:30:26.386Z,21.59
2019-06-08T12:31:27.701Z,21.59
2019-06-08T12:32:27.726Z,21.56
2019-06-08T12:33:25.405Z,21.58
2019-06-08T12:34:25.392Z,21.58
2019-06-08T12:35:25.411Z,21.56
2019-06-08T12:36:25.369Z,21.58
2019-06-08T12:37:27.428Z,21.56
2019-06-08T12:38:25.356Z,21.56
2019-06-08T12:39:25.342Z,21.54
2019-06-08T12:40:25.328Z,21.56
2019-06-08T12:41:25.360Z,21.56
2019-06-08T12:42:25.347Z,21.54
2019-06-08T12:43:25.301Z,21.53
2019-06-08T12:44:26.787Z,21.53
2019-06-08T12:45:27.533Z,21.53
2019-06-08T12:46:25.291Z,21.53
2019-06-08T12:47:27.431Z,21.50
2019-06-08T12:48:25.524Z,21.52
2019-06-08T12:49:25.232Z,21.50
2019-06-08T12:50:25.227Z,21.50
2019-06-08T12:51:25.242Z,21.50
2019-06-08T12:52:29.457Z,21.50